sensor_id;sensor_type;location;lat;lon;timestamp;P1;durP1;ratioP1;P2;durP2;ratioP2
79122;SDS011;68526;44.600;26.032;2023-08-21T00:00:03;8.13;;;7.33;;
79122;SDS011;68526;44.600;26.032;2023-08-21T00:00:20;8.50;;;7.38;;
79122;SDS011;68526;44.600;26.032;2023-08-21T00:00:36;9.88;;;7.72;;
79122;SDS011;68526;44.600;26.032;2023-08-21T00:00:53;8.93;;;7.63;;
79122;SDS011;68526;44.600;26.032;2023-08-21T00:01:09;7.90;;;7.13;;
79122;SDS011;68526;44.600;26.032;2023-08-21T00:01:24;8.47;;;7.67;;
79122;SDS011;68526;44.600;26.032;2023-08-21T00:01:40;9.20;;;8.18;;
79122;SDS011;68526;44.600;26.032;2023-08-21T00:01:56;9.65;;;7.75;;
79122;SDS011;68526;44.600;26.032;2023-08-21T00:02:12;9.13;;;7.47;;
79122;SDS011;68526;44.600;26.032;2023-08-21T00:02:29;8.38;;;7.10;;
79122;SDS011;68526;44.600;26.032;2023-08-21T00:02:45;7.88;;;7.00;;
79122;SDS011;68526;44.600;26.032;2023-08-21T00:03:00;8.60;;;7.70;;
79122;SDS011;68526;44.600;26.032;2023-08-21T00:03:16;9.05;;;7.88;;
79122;SDS011;68526;44.600;26.032;2023-08-21T00:03:32;9.05;;;7.65;;
79122;SDS011;68526;44.600;26.032;2023-08-21T00:03:49;8.90;;;7.75;;
79122;SDS011;68526;44.600;26.032;2023-08-21T00:04:04;9.05;;;7.80;;
79122;SDS011;68526;44.600;26.032;2023-08-21T00:04:21;8.18;;;7.35;;
79122;SDS011;68526;44.600;26.032;2023-08-21T00:04:37;8.30;;;7.50;;
79122;SDS011;68526;44.600;26.032;2023-08-21T00:04:53;8.10;;;7.30;;
79122;SDS011;68526;44.600;26.032;2023-08-21T00:05:09;8.10;;;7.30;;
79122;SDS011;68526;44.600;26.032;2023-08-21T00:05:25;7.95;;;7.15;;
79122;SDS011;68526;44.600;26.032;2023-08-21T00:05:41;7.97;;;7.18;;
79122;SDS011;68526;44.600;26.032;2023-08-21T00:05:58;8.13;;;7.20;;
79122;SDS011;68526;44.600;26.032;2023-08-21T00:06:14;9.03;;;7.37;;
79122;SDS011;68526;44.600;26.032;2023-08-21T00:06:29;9.25;;;7.50;;
79122;SDS011;68526;44.600;26.032;2023-08-21T00:06:45;9.05;;;7.10;;
79122;SDS011;68526;44.600;26.032;2023-08-21T00:07:01;9.27;;;7.38;;
79122;SDS011;68526;44.600;26.032;2023-08-21T00:07:17;8.30;;;7.40;;
79122;SDS011;68526;44.600;26.032;2023-08-21T00:07:34;9.00;;;7.70;;
79122;SDS011;68526;44.600;26.032;2023-08-21T00:07:49;9.95;;;8.20;;
79122;SDS011;68526;44.600;26.032;2023-08-21T00:08:06;9.70;;;8.07;;
79122;SDS011;68526;44.600;26.032;2023-08-21T00:08:22;9.45;;;7.78;;
79122;SDS011;68526;44.600;26.032;2023-08-21T00:08:37;8.80;;;7.90;;
79122;SDS011;68526;44.600;26.032;2023-08-21T00:08:53;8.40;;;7.57;;
79122;SDS011;68526;44.600;26.032;2023-08-21T00:09:09;8.48;;;7.15;;
79122;SDS011;68526;44.600;26.032;2023-08-21T00:09:26;9.50;;;7.63;;
79122;SDS011;68526;44.600;26.032;2023-08-21T00:09:42;8.48;;;7.53;;
79122;SDS011;68526;44.600;26.032;2023-08-21T00:09:59;8.10;;;7.30;;
79122;SDS011;68526;44.600;26.032;2023-08-21T00:10:15;8.70;;;7.53;;
79122;SDS011;68526;44.600;26.032;2023-08-21T00:10:30;8.67;;;7.23;;
79122;SDS011;68526;44.600;26.032;2023-08-21T00:10:46;8.77;;;7.22;;
79122;SDS011;68526;44.600;26.032;2023-08-21T00:11:03;9.45;;;7.75;;
79122;SDS011;68526;44.600;26.032;2023-08-21T00:11:18;8.48;;;7.53;;
79122;SDS011;68526;44.600;26.032;2023-08-21T00:11:35;7.97;;;7.18;;
79122;SDS011;68526;44.600;26.032;2023-08-21T00:11:51;8.10;;;7.30;;
79122;SDS011;68526;44.600;26.032;2023-08-21T00:12:07;9.30;;;7.50;;
79122;SDS011;68526;44.600;26.032;2023-08-21T00:12:23;9.60;;;7.75;;
79122;SDS011;68526;44.600;26.032;2023-08-21T00:12:39;9.02;;;8.07;;
79122;SDS011;68526;44.600;26.032;2023-08-21T00:12:55;8.85;;;7.82;;
79122;SDS011;68526;44.600;26.032;2023-08-21T00:13:11;8.25;;;7.40;;
79122;SDS011;68526;44.600;26.032;2023-08-21T00:13:27;8.47;;;7.57;;
79122;SDS011;68526;44.600;26.032;2023-08-21T00:13:43;10.82;;;7.93;;
79122;SDS011;68526;44.600;26.032;2023-08-21T00:13:59;10.23;;;7.65;;
79122;SDS011;68526;44.600;26.032;2023-08-21T00:14:15;9.27;;;7.20;;
79122;SDS011;68526;44.600;26.032;2023-08-21T00:14:31;9.05;;;7.18;;
79122;SDS011;68526;44.600;26.032;2023-08-21T00:14:47;9.02;;;7.70;;
79122;SDS011;68526;44.600;26.032;2023-08-21T00:15:04;8.55;;;7.55;;
79122;SDS011;68526;44.600;26.032;2023-08-21T00:15:21;7.78;;;6.90;;
79122;SDS011;68526;44.600;26.032;2023-08-21T00:15:37;8.88;;;7.35;;
79122;SDS011;68526;44.600;26.032;2023-08-21T00:15:53;8.35;;;7.20;;
79122;SDS011;68526;44.600;26.032;2023-08-21T00:16:10;8.38;;;7.45;;
79122;SDS011;68526;44.600;26.032;2023-08-21T00:16:26;9.73;;;7.80;;
79122;SDS011;68526;44.600;26.032;2023-08-21T00:16:43;9.55;;;7.38;;
79122;SDS011;68526;44.600;26.032;2023-08-21T00:16:59;10.37;;;7.67;;
79122;SDS011;68526;44.600;26.032;2023-08-21T00:17:15;10.35;;;8.02;;
79122;SDS011;68526;44.600;26.032;2023-08-21T00:17:31;9.02;;;8.10;;
79122;SDS011;68526;44.600;26.032;2023-08-21T00:17:47;8.43;;;7.63;;
79122;SDS011;68526;44.600;26.032;2023-08-21T00:18:03;8.45;;;7.50;;
79122;SDS011;68526;44.600;26.032;2023-08-21T00:18:19;9.52;;;8.02;;
79122;SDS011;68526;44.600;26.032;2023-08-21T00:18:34;8.67;;;7.73;;
79122;SDS011;68526;44.600;26.032;2023-08-21T00:18:51;9.32;;;7.60;;
79122;SDS011;68526;44.600;26.032;2023-08-21T00:19:07;9.48;;;7.68;;
79122;SDS011;68526;44.600;26.032;2023-08-21T00:19:23;8.80;;;7.18;;
79122;SDS011;68526;44.600;26.032;2023-08-21T00:19:39;8.68;;;7.35;;
79122;SDS011;68526;44.600;26.032;2023-08-21T00:19:55;10.70;;;7.33;;
79122;SDS011;68526;44.600;26.032;2023-08-21T00:20:11;9.65;;;7.38;;
79122;SDS011;68526;44.600;26.032;2023-08-21T00:20:28;9.50;;;7.80;;
79122;SDS011;68526;44.600;26.032;2023-08-21T00:20:43;9.77;;;7.95;;
79122;SDS011;68526;44.600;26.032;2023-08-21T00:20:59;9.27;;;7.68;;
79122;SDS011;68526;44.600;26.032;2023-08-21T00:21:15;8.73;;;7.60;;
79122;SDS011;68526;44.600;26.032;2023-08-21T00:21:31;8.50;;;7.43;;
79122;SDS011;68526;44.600;26.032;2023-08-21T00:21:47;8.60;;;7.50;;
79122;SDS011;68526;44.600;26.032;2023-08-21T00:22:02;8.48;;;7.53;;
79122;SDS011;68526;44.600;26.032;2023-08-21T00:22:18;9.23;;;7.72;;
79122;SDS011;68526;44.600;26.032;2023-08-21T00:22:35;9.35;;;7.82;;
79122;SDS011;68526;44.600;26.032;2023-08-21T00:22:51;8.88;;;7.55;;
79122;SDS011;68526;44.600;26.032;2023-08-21T00:23:07;9.43;;;7.57;;
79122;SDS011;68526;44.600;26.032;2023-08-21T00:23:23;9.48;;;7.72;;
79122;SDS011;68526;44.600;26.032;2023-08-21T00:23:39;9.95;;;7.72;;
79122;SDS011;68526;44.600;26.032;2023-08-21T00:23:55;10.13;;;7.60;;
79122;SDS011;68526;44.600;26.032;2023-08-21T00:24:12;9.43;;;7.75;;
79122;SDS011;68526;44.600;26.032;2023-08-21T00:24:28;9.40;;;7.67;;
79122;SDS011;68526;44.600;26.032;2023-08-21T00:24:43;9.15;;;7.47;;
79122;SDS011;68526;44.600;26.032;2023-08-21T00:25:01;10.00;;;8.02;;
79122;SDS011;68526;44.600;26.032;2023-08-21T00:25:17;9.20;;;7.72;;
79122;SDS011;68526;44.600;26.032;2023-08-21T00:25:33;8.23;;;7.43;;
79122;SDS011;68526;44.600;26.032;2023-08-21T00:25:49;8.80;;;7.90;;
79122;SDS011;68526;44.600;26.032;2023-08-21T00:26:05;8.55;;;7.65;;
79122;SDS011;68526;44.600;26.032;2023-08-21T00:26:21;8.25;;;7.43;;
79122;SDS011;68526;44.600;26.032;2023-08-21T00:26:37;8.50;;;7.40;;
79122;SDS011;68526;44.600;26.032;2023-08-21T00:26:53;8.75;;;7.40;;
79122;SDS011;68526;44.600;26.032;2023-08-21T00:27:09;9.30;;;7.43;;
79122;SDS011;68526;44.600;26.032;2023-08-21T00:27:25;9.02;;;7.45;;
79122;SDS011;68526;44.600;26.032;2023-08-21T00:27:40;8.40;;;7.50;;
79122;SDS011;68526;44.600;26.032;2023-08-21T00:27:57;8.27;;;7.47;;
79122;SDS011;68526;44.600;26.032;2023-08-21T00:28:13;8.63;;;7.72;;
79122;SDS011;68526;44.600;26.032;2023-08-21T00:28:29;9.43;;;7.95;;
79122;SDS011;68526;44.600;26.032;2023-08-21T00:28:48;9.73;;;7.88;;
79122;SDS011;68526;44.600;26.032;2023-08-21T00:29:04;8.53;;;7.63;;
79122;SDS011;68526;44.600;26.032;2023-08-21T00:29:20;8.25;;;7.45;;
79122;SDS011;68526;44.600;26.032;2023-08-21T00:29:35;8.63;;;7.70;;
79122;SDS011;68526;44.600;26.032;2023-08-21T00:29:52;10.82;;;8.07;;
79122;SDS011;68526;44.600;26.032;2023-08-21T00:30:08;10.77;;;8.07;;
79122;SDS011;68526;44.600;26.032;2023-08-21T00:30:25;9.60;;;7.95;;
79122;SDS011;68526;44.600;26.032;2023-08-21T00:30:41;8.88;;;7.57;;
79122;SDS011;68526;44.600;26.032;2023-08-21T00:30:59;9.55;;;7.70;;
79122;SDS011;68526;44.600;26.032;2023-08-21T00:31:16;10.95;;;8.20;;
79122;SDS011;68526;44.600;26.032;2023-08-21T00:31:31;9.13;;;7.72;;
79122;SDS011;68526;44.600;26.032;2023-08-21T00:31:48;8.63;;;7.40;;
79122;SDS011;68526;44.600;26.032;2023-08-21T00:32:04;8.48;;;7.57;;
79122;SDS011;68526;44.600;26.032;2023-08-21T00:32:21;9.02;;;7.88;;
79122;SDS011;68526;44.600;26.032;2023-08-21T00:32:37;8.80;;;7.90;;
79122;SDS011;68526;44.600;26.032;2023-08-21T00:32:53;8.65;;;7.78;;
79122;SDS011;68526;44.600;26.032;2023-08-21T00:33:09;8.97;;;8.07;;
79122;SDS011;68526;44.600;26.032;2023-08-21T00:33:24;8.93;;;7.80;;
79122;SDS011;68526;44.600;26.032;2023-08-21T00:33:40;8.30;;;7.40;;
79122;SDS011;68526;44.600;26.032;2023-08-21T00:33:57;8.43;;;7.63;;
79122;SDS011;68526;44.600;26.032;2023-08-21T00:34:13;8.17;;;7.30;;
79122;SDS011;68526;44.600;26.032;2023-08-21T00:34:29;8.15;;;7.28;;
79122;SDS011;68526;44.600;26.032;2023-08-21T00:34:45;8.63;;;7.72;;
79122;SDS011;68526;44.600;26.032;2023-08-21T00:35:00;8.20;;;7.40;;
79122;SDS011;68526;44.600;26.032;2023-08-21T00:35:16;7.80;;;7.00;;
79122;SDS011;68526;44.600;26.032;2023-08-21T00:35:32;8.68;;;7.30;;
79122;SDS011;68526;44.600;26.032;2023-08-21T00:35:49;9.38;;;7.38;;
79122;SDS011;68526;44.600;26.032;2023-08-21T00:36:05;9.48;;;7.40;;
79122;SDS011;68526;44.600;26.032;2023-08-21T00:36:21;9.52;;;7.88;;
79122;SDS011;68526;44.600;26.032;2023-08-21T00:36:37;8.40;;;7.53;;
79122;SDS011;68526;44.600;26.032;2023-08-21T00:36:52;8.23;;;7.07;;
79122;SDS011;68526;44.600;26.032;2023-08-21T00:37:08;8.73;;;7.43;;
79122;SDS011;68526;44.600;26.032;2023-08-21T00:37:24;8.40;;;7.50;;
79122;SDS011;68526;44.600;26.032;2023-08-21T00:37:40;8.43;;;7.63;;
79122;SDS011;68526;44.600;26.032;2023-08-21T00:37:56;8.88;;;7.95;;
79122;SDS011;68526;44.600;26.032;2023-08-21T00:38:13;9.68;;;8.40;;
79122;SDS011;68526;44.600;26.032;2023-08-21T00:38:29;9.80;;;8.25;;
79122;SDS011;68526;44.600;26.032;2023-08-21T00:38:45;9.60;;;7.97;;
79122;SDS011;68526;44.600;26.032;2023-08-21T00:39:01;8.88;;;7.93;;
79122;SDS011;68526;44.600;26.032;2023-08-21T00:39:17;8.88;;;7.90;;
79122;SDS011;68526;44.600;26.032;2023-08-21T00:39:33;9.38;;;8.20;;
79122;SDS011;68526;44.600;26.032;2023-08-21T00:39:48;9.93;;;8.32;;
79122;SDS011;68526;44.600;26.032;2023-08-21T00:40:06;9.83;;;8.00;;
79122;SDS011;68526;44.600;26.032;2023-08-21T00:40:23;9.13;;;7.93;;
79122;SDS011;68526;44.600;26.032;2023-08-21T00:40:40;9.30;;;7.95;;
79122;SDS011;68526;44.600;26.032;2023-08-21T00:40:56;9.03;;;7.40;;
79122;SDS011;68526;44.600;26.032;2023-08-21T00:41:12;9.77;;;7.78;;
79122;SDS011;68526;44.600;26.032;2023-08-21T00:41:28;10.45;;;8.38;;
79122;SDS011;68526;44.600;26.032;2023-08-21T00:41:44;9.40;;;8.40;;
79122;SDS011;68526;44.600;26.032;2023-08-21T00:42:00;8.75;;;7.85;;
79122;SDS011;68526;44.600;26.032;2023-08-21T00:42:15;9.25;;;7.80;;
79122;SDS011;68526;44.600;26.032;2023-08-21T00:42:32;9.70;;;8.02;;
79122;SDS011;68526;44.600;26.032;2023-08-21T00:42:48;8.67;;;7.70;;
79122;SDS011;68526;44.600;26.032;2023-08-21T00:43:04;8.45;;;7.53;;
79122;SDS011;68526;44.600;26.032;2023-08-21T00:43:20;9.65;;;7.70;;
79122;SDS011;68526;44.600;26.032;2023-08-21T00:43:36;9.35;;;8.15;;
79122;SDS011;68526;44.600;26.032;2023-08-21T00:43:51;8.95;;;8.05;;
79122;SDS011;68526;44.600;26.032;2023-08-21T00:44:07;9.40;;;8.33;;
79122;SDS011;68526;44.600;26.032;2023-08-21T00:44:24;9.20;;;8.25;;
79122;SDS011;68526;44.600;26.032;2023-08-21T00:44:40;9.15;;;8.20;;
79122;SDS011;68526;44.600;26.032;2023-08-21T00:44:56;9.90;;;8.60;;
79122;SDS011;68526;44.600;26.032;2023-08-21T00:45:12;9.98;;;8.50;;
79122;SDS011;68526;44.600;26.032;2023-08-21T00:45:28;9.30;;;8.40;;
79122;SDS011;68526;44.600;26.032;2023-08-21T00:45:44;8.98;;;8.07;;
79122;SDS011;68526;44.600;26.032;2023-08-21T00:46:01;8.65;;;7.57;;
79122;SDS011;68526;44.600;26.032;2023-08-21T00:46:19;8.73;;;7.63;;
79122;SDS011;68526;44.600;26.032;2023-08-21T00:46:35;8.82;;;7.90;;
79122;SDS011;68526;44.600;26.032;2023-08-21T00:46:51;9.00;;;8.10;;
79122;SDS011;68526;44.600;26.032;2023-08-21T00:47:07;8.88;;;7.97;;
79122;SDS011;68526;44.600;26.032;2023-08-21T00:47:23;8.88;;;7.97;;
79122;SDS011;68526;44.600;26.032;2023-08-21T00:47:40;9.10;;;7.95;;
79122;SDS011;68526;44.600;26.032;2023-08-21T00:47:59;9.70;;;8.18;;
79122;SDS011;68526;44.600;26.032;2023-08-21T00:48:15;10.45;;;8.43;;
79122;SDS011;68526;44.600;26.032;2023-08-21T00:48:31;9.57;;;8.20;;
79122;SDS011;68526;44.600;26.032;2023-08-21T00:48:47;8.60;;;7.70;;
79122;SDS011;68526;44.600;26.032;2023-08-21T00:49:03;9.45;;;7.90;;
79122;SDS011;68526;44.600;26.032;2023-08-21T00:49:21;9.25;;;8.15;;
79122;SDS011;68526;44.600;26.032;2023-08-21T00:49:36;8.50;;;7.67;;
79122;SDS011;68526;44.600;26.032;2023-08-21T00:49:54;8.60;;;7.70;;
79122;SDS011;68526;44.600;26.032;2023-08-21T00:50:11;9.02;;;7.80;;
79122;SDS011;68526;44.600;26.032;2023-08-21T00:50:28;8.35;;;7.53;;
79122;SDS011;68526;44.600;26.032;2023-08-21T00:50:43;8.68;;;7.78;;
79122;SDS011;68526;44.600;26.032;2023-08-21T00:51:00;10.07;;;8.43;;
79122;SDS011;68526;44.600;26.032;2023-08-21T00:51:16;10.07;;;8.40;;
79122;SDS011;68526;44.600;26.032;2023-08-21T00:51:34;9.30;;;8.38;;
79122;SDS011;68526;44.600;26.032;2023-08-21T00:51:50;9.25;;;8.18;;
79122;SDS011;68526;44.600;26.032;2023-08-21T00:52:07;9.77;;;7.72;;
79122;SDS011;68526;44.600;26.032;2023-08-21T00:52:26;9.13;;;7.63;;
79122;SDS011;68526;44.600;26.032;2023-08-21T00:52:42;9.05;;;7.60;;
79122;SDS011;68526;44.600;26.032;2023-08-21T00:53:00;8.55;;;7.65;;
79122;SDS011;68526;44.600;26.032;2023-08-21T00:53:18;8.38;;;7.40;;
79122;SDS011;68526;44.600;26.032;2023-08-21T00:53:34;8.57;;;7.55;;
79122;SDS011;68526;44.600;26.032;2023-08-21T00:53:50;8.63;;;7.68;;
79122;SDS011;68526;44.600;26.032;2023-08-21T00:54:06;9.10;;;7.47;;
79122;SDS011;68526;44.600;26.032;2023-08-21T00:54:22;9.30;;;7.32;;
79122;SDS011;68526;44.600;26.032;2023-08-21T00:54:38;9.38;;;7.97;;
79122;SDS011;68526;44.600;26.032;2023-08-21T00:54:55;8.35;;;7.28;;
79122;SDS011;68526;44.600;26.032;2023-08-21T00:55:13;8.17;;;6.80;;
79122;SDS011;68526;44.600;26.032;2023-08-21T00:55:29;8.60;;;7.67;;
79122;SDS011;68526;44.600;26.032;2023-08-21T00:55:46;9.35;;;7.95;;
79122;SDS011;68526;44.600;26.032;2023-08-21T00:56:02;8.88;;;7.85;;
79122;SDS011;68526;44.600;26.032;2023-08-21T00:56:18;8.25;;;7.45;;
79122;SDS011;68526;44.600;26.032;2023-08-21T00:56:35;9.70;;;7.90;;
79122;SDS011;68526;44.600;26.032;2023-08-21T00:56:51;9.07;;;7.38;;
79122;SDS011;68526;44.600;26.032;2023-08-21T00:57:07;7.65;;;6.80;;
79122;SDS011;68526;44.600;26.032;2023-08-21T00:57:25;7.97;;;7.13;;
79122;SDS011;68526;44.600;26.032;2023-08-21T00:57:42;8.82;;;7.60;;
79122;SDS011;68526;44.600;26.032;2023-08-21T00:57:58;9.70;;;7.55;;
79122;SDS011;68526;44.600;26.032;2023-08-21T00:58:15;9.25;;;7.53;;
79122;SDS011;68526;44.600;26.032;2023-08-21T00:58:33;8.45;;;7.57;;
79122;SDS011;68526;44.600;26.032;2023-08-21T00:58:49;8.75;;;7.85;;
79122;SDS011;68526;44.600;26.032;2023-08-21T00:59:05;8.63;;;7.72;;
79122;SDS011;68526;44.600;26.032;2023-08-21T00:59:21;8.95;;;7.95;;
79122;SDS011;68526;44.600;26.032;2023-08-21T00:59:37;9.52;;;8.18;;
79122;SDS011;68526;44.600;26.032;2023-08-21T00:59:54;9.88;;;8.35;;
79122;SDS011;68526;44.600;26.032;2023-08-21T01:00:10;9.30;;;8.35;;
79122;SDS011;68526;44.600;26.032;2023-08-21T01:00:28;9.13;;;8.23;;
79122;SDS011;68526;44.600;26.032;2023-08-21T01:00:45;8.60;;;7.57;;
79122;SDS011;68526;44.600;26.032;2023-08-21T01:01:05;8.65;;;7.32;;
79122;SDS011;68526;44.600;26.032;2023-08-21T01:01:21;9.15;;;7.93;;
79122;SDS011;68526;44.600;26.032;2023-08-21T01:01:39;8.95;;;8.05;;
79122;SDS011;68526;44.600;26.032;2023-08-21T01:01:57;8.20;;;7.40;;
79122;SDS011;68526;44.600;26.032;2023-08-21T01:02:13;8.25;;;7.38;;
79122;SDS011;68526;44.600;26.032;2023-08-21T01:02:29;8.23;;;7.05;;
79122;SDS011;68526;44.600;26.032;2023-08-21T01:02:45;7.83;;;7.07;;
79122;SDS011;68526;44.600;26.032;2023-08-21T01:03:00;8.63;;;7.72;;
79122;SDS011;68526;44.600;26.032;2023-08-21T01:03:16;8.77;;;7.88;;
79122;SDS011;68526;44.600;26.032;2023-08-21T01:03:32;8.77;;;7.88;;
79122;SDS011;68526;44.600;26.032;2023-08-21T01:03:49;8.73;;;7.80;;
79122;SDS011;68526;44.600;26.032;2023-08-21T01:04:05;8.63;;;7.67;;
79122;SDS011;68526;44.600;26.032;2023-08-21T01:04:21;8.85;;;7.78;;
79122;SDS011;68526;44.600;26.032;2023-08-21T01:04:37;9.85;;;8.15;;
79122;SDS011;68526;44.600;26.032;2023-08-21T01:04:53;9.18;;;7.88;;
79122;SDS011;68526;44.600;26.032;2023-08-21T01:05:09;8.27;;;7.35;;
79122;SDS011;68526;44.600;26.032;2023-08-21T01:05:25;8.67;;;7.43;;
79122;SDS011;68526;44.600;26.032;2023-08-21T01:05:42;8.98;;;7.80;;
79122;SDS011;68526;44.600;26.032;2023-08-21T01:05:58;9.10;;;7.97;;
79122;SDS011;68526;44.600;26.032;2023-08-21T01:06:14;8.90;;;7.90;;
79122;SDS011;68526;44.600;26.032;2023-08-21T01:06:30;8.23;;;7.43;;
79122;SDS011;68526;44.600;26.032;2023-08-21T01:06:46;8.27;;;7.45;;
79122;SDS011;68526;44.600;26.032;2023-08-21T01:07:03;9.35;;;7.97;;
79122;SDS011;68526;44.600;26.032;2023-08-21T01:07:24;9.63;;;8.45;;
79122;SDS011;68526;44.600;26.032;2023-08-21T01:07:44;9.65;;;8.20;;
79122;SDS011;68526;44.600;26.032;2023-08-21T01:08:06;10.43;;;7.95;;
79122;SDS011;68526;44.600;26.032;2023-08-21T01:08:28;9.10;;;8.10;;
79122;SDS011;68526;44.600;26.032;2023-08-21T01:08:57;8.15;;;7.32;;
79122;SDS011;68526;44.600;26.032;2023-08-21T01:09:17;8.85;;;7.60;;
79122;SDS011;68526;44.600;26.032;2023-08-21T01:09:41;8.40;;;7.60;;
79122;SDS011;68526;44.600;26.032;2023-08-21T01:10:03;9.88;;;8.30;;
79122;SDS011;68526;44.600;26.032;2023-08-21T01:10:29;9.07;;;8.07;;
79122;SDS011;68526;44.600;26.032;2023-08-21T01:10:56;9.57;;;8.30;;
79122;SDS011;68526;44.600;26.032;2023-08-21T01:11:25;9.35;;;8.35;;
79122;SDS011;68526;44.600;26.032;2023-08-21T01:11:48;9.35;;;8.32;;
79122;SDS011;68526;44.600;26.032;2023-08-21T01:12:12;9.00;;;8.10;;
79122;SDS011;68526;44.600;26.032;2023-08-21T01:12:40;9.30;;;8.30;;
79122;SDS011;68526;44.600;26.032;2023-08-21T01:13:05;9.48;;;8.15;;
79122;SDS011;68526;44.600;26.032;2023-08-21T01:13:29;10.25;;;8.18;;
79122;SDS011;68526;44.600;26.032;2023-08-21T01:13:58;9.77;;;7.70;;
79122;SDS011;68526;44.600;26.032;2023-08-21T01:14:22;9.77;;;7.80;;
79122;SDS011;68526;44.600;26.032;2023-08-21T01:14:46;9.45;;;8.20;;
79122;SDS011;68526;44.600;26.032;2023-08-21T01:15:06;9.10;;;7.95;;
79122;SDS011;68526;44.600;26.032;2023-08-21T01:15:24;11.48;;;8.13;;
79122;SDS011;68526;44.600;26.032;2023-08-21T01:15:40;10.37;;;7.97;;
79122;SDS011;68526;44.600;26.032;2023-08-21T01:15:59;9.57;;;8.60;;
79122;SDS011;68526;44.600;26.032;2023-08-21T01:16:16;8.88;;;7.93;;
79122;SDS011;68526;44.600;26.032;2023-08-21T01:16:33;8.57;;;7.68;;
79122;SDS011;68526;44.600;26.032;2023-08-21T01:16:51;10.55;;;8.10;;
79122;SDS011;68526;44.600;26.032;2023-08-21T01:17:11;9.82;;;8.00;;
79122;SDS011;68526;44.600;26.032;2023-08-21T01:17:29;9.15;;;8.20;;
79122;SDS011;68526;44.600;26.032;2023-08-21T01:17:47;8.93;;;8.02;;
79122;SDS011;68526;44.600;26.032;2023-08-21T01:18:04;8.68;;;7.78;;
79122;SDS011;68526;44.600;26.032;2023-08-21T01:18:22;8.93;;;7.38;;
79122;SDS011;68526;44.600;26.032;2023-08-21T01:18:38;8.75;;;7.68;;
79122;SDS011;68526;44.600;26.032;2023-08-21T01:18:54;9.35;;;8.35;;
79122;SDS011;68526;44.600;26.032;2023-08-21T01:19:14;9.25;;;8.25;;
79122;SDS011;68526;44.600;26.032;2023-08-21T01:19:40;9.45;;;8.45;;
79122;SDS011;68526;44.600;26.032;2023-08-21T01:19:59;9.15;;;8.23;;
79122;SDS011;68526;44.600;26.032;2023-08-21T01:20:16;9.02;;;8.13;;
79122;SDS011;68526;44.600;26.032;2023-08-21T01:20:32;8.75;;;7.85;;
79122;SDS011;68526;44.600;26.032;2023-08-21T01:20:49;8.30;;;7.45;;
79122;SDS011;68526;44.600;26.032;2023-08-21T01:21:05;8.10;;;7.28;;
79122;SDS011;68526;44.600;26.032;2023-08-21T01:21:21;9.25;;;7.53;;
79122;SDS011;68526;44.600;26.032;2023-08-21T01:21:38;9.05;;;7.57;;
79122;SDS011;68526;44.600;26.032;2023-08-21T01:21:54;8.37;;;7.30;;
79122;SDS011;68526;44.600;26.032;2023-08-21T01:22:10;9.30;;;7.57;;
79122;SDS011;68526;44.600;26.032;2023-08-21T01:22:26;9.38;;;7.75;;
79122;SDS011;68526;44.600;26.032;2023-08-21T01:22:42;8.57;;;7.65;;
79122;SDS011;68526;44.600;26.032;2023-08-21T01:23:03;8.38;;;7.57;;
79122;SDS011;68526;44.600;26.032;2023-08-21T01:23:29;8.43;;;7.63;;
79122;SDS011;68526;44.600;26.032;2023-08-21T01:23:50;9.00;;;7.75;;
79122;SDS011;68526;44.600;26.032;2023-08-21T01:24:06;9.48;;;7.90;;
79122;SDS011;68526;44.600;26.032;2023-08-21T01:24:21;8.17;;;7.30;;
79122;SDS011;68526;44.600;26.032;2023-08-21T01:24:37;8.13;;;7.32;;
79122;SDS011;68526;44.600;26.032;2023-08-21T01:24:53;9.00;;;8.10;;
79122;SDS011;68526;44.600;26.032;2023-08-21T01:25:09;8.88;;;7.97;;
79122;SDS011;68526;44.600;26.032;2023-08-21T01:25:25;8.90;;;7.68;;
79122;SDS011;68526;44.600;26.032;2023-08-21T01:25:41;9.17;;;7.43;;
79122;SDS011;68526;44.600;26.032;2023-08-21T01:25:58;7.97;;;7.10;;
79122;SDS011;68526;44.600;26.032;2023-08-21T01:26:15;8.93;;;7.55;;
79122;SDS011;68526;44.600;26.032;2023-08-21T01:26:31;9.67;;;7.77;;
79122;SDS011;68526;44.600;26.032;2023-08-21T01:26:47;8.70;;;7.72;;
79122;SDS011;68526;44.600;26.032;2023-08-21T01:27:02;8.57;;;7.78;;
79122;SDS011;68526;44.600;26.032;2023-08-21T01:27:18;8.73;;;7.55;;
79122;SDS011;68526;44.600;26.032;2023-08-21T01:27:36;9.50;;;7.80;;
79122;SDS011;68526;44.600;26.032;2023-08-21T01:27:52;8.90;;;7.90;;
79122;SDS011;68526;44.600;26.032;2023-08-21T01:28:09;9.00;;;8.10;;
79122;SDS011;68526;44.600;26.032;2023-08-21T01:28:25;9.73;;;8.32;;
79122;SDS011;68526;44.600;26.032;2023-08-21T01:28:41;9.75;;;8.05;;
79122;SDS011;68526;44.600;26.032;2023-08-21T01:28:57;8.73;;;7.80;;
79122;SDS011;68526;44.600;26.032;2023-08-21T01:29:13;9.50;;;8.43;;
79122;SDS011;68526;44.600;26.032;2023-08-21T01:29:29;9.30;;;8.15;;
79122;SDS011;68526;44.600;26.032;2023-08-21T01:29:46;9.53;;;8.03;;
79122;SDS011;68526;44.600;26.032;2023-08-21T01:30:03;9.60;;;8.18;;
79122;SDS011;68526;44.600;26.032;2023-08-21T01:30:21;9.02;;;8.10;;
79122;SDS011;68526;44.600;26.032;2023-08-21T01:30:37;10.32;;;7.57;;
79122;SDS011;68526;44.600;26.032;2023-08-21T01:30:55;10.88;;;7.88;;
79122;SDS011;68526;44.600;26.032;2023-08-21T01:31:17;9.77;;;8.10;;
79122;SDS011;68526;44.600;26.032;2023-08-21T01:31:39;9.00;;;7.93;;
79122;SDS011;68526;44.600;26.032;2023-08-21T01:32:01;9.35;;;8.40;;
79122;SDS011;68526;44.600;26.032;2023-08-21T01:32:25;9.20;;;8.30;;
79122;SDS011;68526;44.600;26.032;2023-08-21T01:32:45;8.77;;;7.93;;
79122;SDS011;68526;44.600;26.032;2023-08-21T01:33:08;9.82;;;8.43;;
79122;SDS011;68526;44.600;26.032;2023-08-21T01:33:28;8.57;;;7.65;;
79122;SDS011;68526;44.600;26.032;2023-08-21T01:33:47;9.27;;;8.00;;
79122;SDS011;68526;44.600;26.032;2023-08-21T01:34:08;8.95;;;8.05;;
79122;SDS011;68526;44.600;26.032;2023-08-21T01:34:26;8.45;;;7.65;;
79122;SDS011;68526;44.600;26.032;2023-08-21T01:34:44;8.20;;;7.40;;
79122;SDS011;68526;44.600;26.032;2023-08-21T01:35:01;8.00;;;7.20;;
79122;SDS011;68526;44.600;26.032;2023-08-21T01:35:18;8.10;;;7.30;;
79122;SDS011;68526;44.600;26.032;2023-08-21T01:35:35;8.23;;;7.40;;
79122;SDS011;68526;44.600;26.032;2023-08-21T01:35:53;8.65;;;7.70;;
79122;SDS011;68526;44.600;26.032;2023-08-21T01:36:09;8.60;;;7.35;;
79122;SDS011;68526;44.600;26.032;2023-08-21T01:36:25;8.38;;;7.40;;
79122;SDS011;68526;44.600;26.032;2023-08-21T01:36:41;8.15;;;7.35;;
79122;SDS011;68526;44.600;26.032;2023-08-21T01:36:58;8.55;;;7.38;;
79122;SDS011;68526;44.600;26.032;2023-08-21T01:37:14;9.70;;;7.50;;
79122;SDS011;68526;44.600;26.032;2023-08-21T01:37:32;9.60;;;7.60;;
79122;SDS011;68526;44.600;26.032;2023-08-21T01:37:51;8.93;;;7.83;;
79122;SDS011;68526;44.600;26.032;2023-08-21T01:38:07;8.53;;;7.60;;
79122;SDS011;68526;44.600;26.032;2023-08-21T01:38:23;8.23;;;7.43;;
79122;SDS011;68526;44.600;26.032;2023-08-21T01:38:41;8.25;;;7.45;;
79122;SDS011;68526;44.600;26.032;2023-08-21T01:38:58;8.30;;;7.40;;
79122;SDS011;68526;44.600;26.032;2023-08-21T01:39:15;7.78;;;6.88;;
79122;SDS011;68526;44.600;26.032;2023-08-21T01:39:32;8.35;;;7.03;;
79122;SDS011;68526;44.600;26.032;2023-08-21T01:39:48;8.40;;;7.25;;
79122;SDS011;68526;44.600;26.032;2023-08-21T01:40:04;8.48;;;7.57;;
79122;SDS011;68526;44.600;26.032;2023-08-21T01:40:21;8.55;;;7.68;;
79122;SDS011;68526;44.600;26.032;2023-08-21T01:40:37;8.23;;;7.30;;
79122;SDS011;68526;44.600;26.032;2023-08-21T01:40:53;8.60;;;7.40;;